createdAt,value
2018-02-08T00:00:43.576Z,-1.00
2018-02-08T00:03:11.028Z,-1.00
2018-02-08T00:05:38.464Z,-1.00
2018-02-08T00:08:05.962Z,-1.00
2018-02-08T00:10:33.386Z,-1.00
2018-02-08T00:13:00.828Z,-1.00
2018-02-08T00:15:29.140Z,-0.90
2018-02-08T00:17:56.572Z,-0.90
2018-02-08T00:20:24.063Z,-0.90
2018-02-08T00:22:51.508Z,-0.90
2018-02-08T00:25:18.952Z,-0.90
2018-02-08T00:27:46.385Z,-0.80
2018-02-08T00:30:13.828Z,-0.80
2018-02-08T00:32:42.032Z,-0.80
2018-02-08T00:35:09.500Z,-0.80
2018-02-08T00:37:36.949Z,-0.80
2018-02-08T00:40:04.385Z,-0.80
2018-02-08T00:42:31.811Z,-0.80
2018-02-08T00:44:59.328Z,-0.80
2018-02-08T00:47:26.784Z,-0.80
2018-02-08T00:49:54.214Z,-0.70
2018-02-08T00:52:21.663Z,-0.70
2018-02-08T00:54:49.158Z,-0.70
2018-02-08T00:57:16.613Z,-0.70
2018-02-08T00:59:44.060Z,-0.70
2018-02-08T01:02:11.505Z,-0.70
2018-02-08T01:04:38.940Z,-0.70
2018-02-08T01:07:07.264Z,-0.70
2018-02-08T01:09:34.724Z,-0.70
2018-02-08T01:12:02.269Z,-0.70
2018-02-08T01:14:29.740Z,-0.70
2018-02-08T01:16:57.183Z,-0.70
2018-02-08T01:19:24.626Z,-0.70
2018-02-08T01:21:52.107Z,-0.70
2018-02-08T01:24:19.552Z,-0.70
2018-02-08T01:26:47.140Z,-0.70
2018-02-08T01:29:14.785Z,-0.70
2018-02-08T01:31:42.245Z,-0.70
2018-02-08T01:34:09.696Z,-0.70
2018-02-08T01:36:37.263Z,-0.70
2018-02-08T01:39:04.703Z,-0.70
2018-02-08T01:41:32.182Z,-0.70
2018-02-08T01:43:59.787Z,-0.70
2018-02-08T01:46:28.032Z,-0.60
2018-02-08T01:48:55.714Z,-0.70
2018-02-08T01:51:23.151Z,-0.60
2018-02-08T01:53:50.708Z,-0.60
2018-02-08T01:56:18.147Z,-0.60
2018-02-08T01:58:45.696Z,-0.60
2018-02-08T02:01:13.160Z,-0.60
2018-02-08T02:03:40.611Z,-0.60
2018-02-08T02:06:08.076Z,-0.60
2018-02-08T02:08:35.556Z,-0.60
2018-02-08T02:11:02.996Z,-0.60
2018-02-08T02:13:30.580Z,-0.60
2018-02-08T02:15:58.009Z,-0.60
2018-02-08T02:18:25.552Z,-0.60
2018-02-08T02:20:53.124Z,-0.60
2018-02-08T02:23:20.556Z,-0.60
2018-02-08T02:25:48.042Z,-0.50
2018-02-08T02:28:15.684Z,-0.60
2018-02-08T02:30:43.096Z,-0.50
2018-02-08T02:33:11.320Z,-0.60
2018-02-08T02:35:38.774Z,-0.50
2018-02-08T02:38:06.239Z,-0.60
2018-02-08T02:40:33.670Z,-0.50
2018-02-08T02:43:01.112Z,-0.50
2018-02-08T02:45:28.540Z,-0.50
2018-02-08T02:47:55.977Z,-0.50
2018-02-08T02:50:23.508Z,-0.50
2018-02-08T02:52:50.978Z,-0.50
2018-02-08T02:55:18.411Z,-0.60
2018-02-08T02:57:46.003Z,-0.50
2018-02-08T03:00:13.438Z,-0.50
2018-02-08T03:02:40.874Z,-0.50
2018-02-08T03:05:08.316Z,-0.60
2018-02-08T03:07:36.517Z,-0.50
2018-02-08T03:10:03.992Z,-0.60
2018-02-08T03:12:31.432Z,-0.60
2018-02-08T03:14:58.875Z,-0.60
2018-02-08T03:17:26.312Z,-0.60
2018-02-08T03:19:54.564Z,-0.60
2018-02-08T03:22:21.997Z,-0.60
2018-02-08T03:24:49.432Z,-0.60
2018-02-08T03:27:16.901Z,-0.60
2018-02-08T03:29:44.310Z,-0.60
2018-02-08T03:32:11.740Z,-0.50
2018-02-08T03:34:39.193Z,-0.60
2018-02-08T03:37:06.633Z,-0.60
2018-02-08T03:39:34.094Z,-0.60
2018-02-08T03:42:01.660Z,-0.60
2018-02-08T03:44:29.100Z,-0.50
2018-02-08T03:46:56.531Z,-0.60
2018-02-08T03:49:24.747Z,-0.60
2018-02-08T03:51:52.196Z,-0.60
2018-02-08T03:54:19.636Z,-0.60
2018-02-08T03:56:47.090Z,-0.60
2018-02-08T03:59:14.666Z,-0.60
2018-02-08T04:01:42.084Z,-0.50
2018-02-08T04:04:10.427Z,-0.50
2018-02-08T04:06:37.971Z,-0.50
2018-02-08T04:09:05.519Z,-0.50
2018-02-08T04:11:32.995Z,-0.50
2018-02-08T04:14:00.536Z,-0.50
2018-02-08T04:16:27.943Z,-0.50
2018-02-08T04:18:55.600Z,-0.50
2018-02-08T04:21:23.040Z,-0.50
2018-02-08T04:23:50.479Z,-0.40
2018-02-08T04:26:17.936Z,-0.40
2018-02-08T04:28:45.396Z,-0.40
2018-02-08T04:31:12.835Z,-0.40
2018-02-08T04:33:40.302Z,-0.40
2018-02-08T04:36:07.739Z,-0.40
2018-02-08T04:38:47.163Z,-0.40
2018-02-08T04:41:27.385Z,-0.40
2018-02-08T04:44:16.623Z,-0.40
2018-02-08T04:47:07.018Z,-0.50
2018-02-08T04:49:34.476Z,-0.50
2018-02-08T04:52:01.926Z,-0.50
2018-02-08T04:54:29.389Z,-0.40
2018-02-08T04:56:56.876Z,-0.50
2018-02-08T04:59:24.403Z,-0.40
2018-02-08T05:01:51.851Z,-0.40
2018-02-08T05:04:19.412Z,-0.40
2018-02-08T05:06:46.876Z,-0.40
2018-02-08T05:09:14.337Z,-0.40
2018-02-08T05:11:41.781Z,-0.40
2018-02-08T05:14:09.212Z,-0.40
2018-02-08T05:16:36.712Z,-0.40
2018-02-08T05:19:04.253Z,-0.40
2018-02-08T05:21:31.730Z,-0.40
2018-02-08T05:23:59.170Z,-0.40
2018-02-08T05:26:26.739Z,-0.40
2018-02-08T05:28:54.171Z,-0.40
2018-02-08T05:31:21.596Z,0.30
2018-02-08T05:33:49.049Z,-0.40
2018-02-08T05:36:16.561Z,-0.40
2018-02-08T05:38:44.036Z,-0.40
2018-02-08T05:41:11.585Z,-0.40
2018-02-08T05:43:39.020Z,-0.40
2018-02-08T05:46:06.500Z,-0.40
2018-02-08T05:48:33.975Z,-0.40
2018-02-08T05:51:01.524Z,-0.40
2018-02-08T05:53:28.959Z,-0.40
2018-02-08T05:55:56.396Z,-0.40
2018-02-08T05:58:24.598Z,-0.40
2018-02-08T06:00:52.028Z,-0.40
2018-02-08T06:03:19.468Z,-0.40
2018-02-08T06:05:47.693Z,-0.40
2018-02-08T06:08:15.154Z,-0.40
2018-02-08T06:10:42.701Z,-0.40
2018-02-08T06:13:10.172Z,-0.40
2018-02-08T06:15:37.604Z,-0.40
2018-02-08T06:18:05.052Z,-0.40
2018-02-08T06:20:32.484Z,-0.40
2018-02-08T06:23:00.089Z,-0.40
2018-02-08T06:25:27.560Z,-0.40
2018-02-08T06:27:55.007Z,-0.40
2018-02-08T06:30:22.431Z,-0.40
2018-02-08T06:32:49.872Z,-0.40
2018-02-08T06:35:18.109Z,-0.40
2018-02-08T06:37:45.569Z,-0.40
2018-02-08T06:40:13.122Z,-0.40
2018-02-08T06:42:40.555Z,-0.40
2018-02-08T06:45:07.984Z,-0.40
2018-02-08T06:47:36.795Z,-0.40
2018-02-08T06:50:04.220Z,-0.40
2018-02-08T06:52:32.453Z,-0.40
2018-02-08T06:54:59.897Z,-0.40
2018-02-08T06:57:27.377Z,-0.40
2018-02-08T06:59:54.812Z,-0.40
2018-02-08T07:02:22.252Z,-0.30
2018-02-08T07:04:49.743Z,-0.30
2018-02-08T07:07:17.168Z,-0.30
2018-02-08T07:09:44.650Z,-0.30
2018-02-08T07:12:12.111Z,-0.30
2018-02-08T07:14:39.540Z,-0.30
2018-02-08T07:17:06.988Z,-0.30
2018-02-08T07:19:34.449Z,-0.30
2018-02-08T07:22:01.884Z,-0.30
2018-02-08T07:24:30.204Z,-0.20
2018-02-08T07:26:57.616Z,-0.30
2018-02-08T07:29:25.120Z,-0.20
2018-02-08T07:31:52.547Z,-0.20
2018-02-08T07:34:20.853Z,-0.20
2018-02-08T07:36:48.309Z,-0.20
2018-02-08T07:39:15.730Z,-0.20
2018-02-08T07:41:43.954Z,-0.10
2018-02-08T07:44:11.412Z,-0.10
2018-02-08T07:46:38.858Z,-0.10
2018-02-08T07:49:06.336Z,0.00
2018-02-08T07:51:33.756Z,0.00
2018-02-08T07:54:01.237Z,0.10
2018-02-08T07:56:28.663Z,0.10
2018-02-08T07:58:56.152Z,0.20
2018-02-08T08:01:23.592Z,0.20
2018-02-08T08:03:51.075Z,0.30
2018-02-08T08:06:18.511Z,0.40
2018-02-08T08:08:45.983Z,0.50
2018-02-08T08:11:13.415Z,0.50
2018-02-08T08:13:40.852Z,0.60
2018-02-08T08:16:09.070Z,0.70
2018-02-08T08:18:36.504Z,0.70
2018-02-08T08:21:03.977Z,0.70
2018-02-08T08:23:31.599Z,0.80
2018-02-08T08:25:59.788Z,0.80
2018-02-08T08:28:27.273Z,0.80
2018-02-08T08:30:54.754Z,0.80
2018-02-08T08:33:22.184Z,0.80
2018-02-08T08:35:49.612Z,0.80
2018-02-08T08:38:17.058Z,0.80
2018-02-08T08:40:45.254Z,0.70
2018-02-08T08:43:12.687Z,0.70
2018-02-08T08:45:40.900Z,0.70
2018-02-08T08:48:08.331Z,0.70
2018-02-08T08:50:35.768Z,0.70
2018-02-08T08:53:03.277Z,0.70
2018-02-08T08:55:30.720Z,0.70
2018-02-08T08:57:58.188Z,0.80
2018-02-08T09:00:25.659Z,0.80
2018-02-08T09:02:53.090Z,0.90
2018-02-08T09:05:20.567Z,0.90
2018-02-08T09:07:48.019Z,1.00
2018-02-08T09:10:15.482Z,1.10
2018-02-08T09:12:42.916Z,1.10
2018-02-08T09:15:10.365Z,1.20
2018-02-08T09:17:37.820Z,1.20
2018-02-08T09:20:05.304Z,1.20
2018-02-08T09:22:32.754Z,1.20
2018-02-08T09:25:00.179Z,1.30
2018-02-08T09:27:28.408Z,1.50
2018-02-08T09:29:55.845Z,1.50
2018-02-08T09:32:23.312Z,1.70
2018-02-08T09:34:50.740Z,1.80
2018-02-08T09:37:19.035Z,2.10
2018-02-08T09:39:46.459Z,2.10
2018-02-08T09:42:13.958Z,2.10
2018-02-08T09:44:41.412Z,2.20
2018-02-08T09:47:08.876Z,2.20
2018-02-08T09:49:36.323Z,2.20
2018-02-08T09:52:03.792Z,2.20
2018-02-08T09:54:32.005Z,2.30
2018-02-08T09:56:59.432Z,2.20
2018-02-08T09:59:27.739Z,2.20
2018-02-08T10:01:55.151Z,2.20
2018-02-08T10:04:23.352Z,2.30
2018-02-08T10:06:50.930Z,2.30
2018-02-08T10:09:18.352Z,2.30
2018-02-08T10:11:46.563Z,2.60
2018-02-08T10:14:14.000Z,2.50
2018-02-08T10:16:41.432Z,2.60
2018-02-08T10:19:09.634Z,2.90
2018-02-08T10:21:37.111Z,2.90
2018-02-08T10:24:04.568Z,3.10
2018-02-08T10:26:32.024Z,3.30
2018-02-08T10:28:59.475Z,3.40
2018-02-08T10:31:26.909Z,3.40
2018-02-08T10:33:55.124Z,3.40
2018-02-08T10:36:22.564Z,3.30
2018-02-08T10:38:49.996Z,3.30
2018-02-08T10:41:17.587Z,3.20
2018-02-08T10:43:45.048Z,3.30
2018-02-08T10:46:12.490Z,3.30
2018-02-08T10:48:39.915Z,3.30
2018-02-08T10:51:08.125Z,3.40
2018-02-08T10:53:35.549Z,3.40
2018-02-08T10:56:03.773Z,3.40
2018-02-08T10:58:31.218Z,3.40
2018-02-08T11:00:58.645Z,3.50
2018-02-08T11:03:26.860Z,3.60
2018-02-08T11:05:54.343Z,3.60
2018-02-08T11:08:21.768Z,3.70
2018-02-08T11:10:49.218Z,3.80
2018-02-08T11:13:16.641Z,3.80
2018-02-08T11:15:44.863Z,3.90
2018-02-08T11:18:12.296Z,3.90
2018-02-08T11:20:39.763Z,4.00
2018-02-08T11:23:07.177Z,4.10
2018-02-08T11:25:35.498Z,4.50
2018-02-08T11:28:02.960Z,4.40
2018-02-08T11:30:30.396Z,4.50
2018-02-08T11:32:57.880Z,4.60
2018-02-08T11:35:25.364Z,4.60
2018-02-08T11:37:52.800Z,4.60
2018-02-08T11:40:20.248Z,4.60
2018-02-08T11:42:47.696Z,4.60
2018-02-08T11:45:15.133Z,4.60
2018-02-08T11:47:42.565Z,4.70
2018-02-08T11:50:10.888Z,4.70
2018-02-08T11:52:38.350Z,4.70
2018-02-08T11:55:05.810Z,4.80
2018-02-08T11:57:33.365Z,4.80
2018-02-08T12:00:00.772Z,4.80
2018-02-08T12:02:28.964Z,4.90
2018-02-08T12:04:56.420Z,4.90
2018-02-08T12:07:24.623Z,5.00
2018-02-08T12:09:52.100Z,5.00
2018-02-08T12:12:19.547Z,5.00
2018-02-08T12:14:47.009Z,5.00
2018-02-08T12:17:14.433Z,5.10
2018-02-08T12:19:41.873Z,5.10
2018-02-08T12:22:10.082Z,5.20
2018-02-08T12:24:37.504Z,5.20
2018-02-08T12:27:05.713Z,5.50
2018-02-08T12:29:33.136Z,5.50
2018-02-08T12:32:01.366Z,5.50
2018-02-08T12:34:28.854Z,5.50
2018-02-08T12:36:56.242Z,5.50
2018-02-08T12:39:23.736Z,5.50
2018-02-08T12:41:51.280Z,5.50
2018-02-08T12:44:18.716Z,5.50
2018-02-08T12:46:46.144Z,5.40
2018-02-08T12:49:14.372Z,5.30
2018-02-08T12:51:41.807Z,5.30
2018-02-08T12:54:09.231Z,5.30
2018-02-08T12:56:37.459Z,5.30
2018-02-08T12:59:04.920Z,5.30
2018-02-08T13:01:32.356Z,5.30
2018-02-08T13:03:59.789Z,5.30
2018-02-08T13:06:27.980Z,5.20
2018-02-08T13:08:55.467Z,5.20
2018-02-08T13:11:22.909Z,5.30
2018-02-08T13:13:50.433Z,5.20
2018-02-08T13:16:17.812Z,5.20
2018-02-08T13:18:45.300Z,5.30
2018-02-08T13:21:12.845Z,5.30
2018-02-08T13:23:40.348Z,5.30
2018-02-08T13:26:07.878Z,5.30
2018-02-08T13:28:35.300Z,5.30
2018-02-08T13:31:02.734Z,5.40
2018-02-08T13:33:30.940Z,5.40
2018-02-08T13:35:58.360Z,5.40
2018-02-08T13:38:26.580Z,5.50
2018-02-08T13:40:55.529Z,5.50
2018-02-08T13:43:23.751Z,5.70
2018-02-08T13:45:51.188Z,5.60
2018-02-08T13:48:33.416Z,5.70
2018-02-08T13:51:20.683Z,5.60
2018-02-08T13:53:54.573Z,5.60
2018-02-08T13:56:36.880Z,5.60
2018-02-08T13:59:21.122Z,5.60
2018-02-08T14:01:51.014Z,5.70
2018-02-08T14:04:18.567Z,5.80
2018-02-08T14:06:45.980Z,5.80
2018-02-08T14:09:17.918Z,5.90
2018-02-08T14:11:45.349Z,5.90
2018-02-08T14:14:12.903Z,6.00
2018-02-08T14:16:40.463Z,6.00
2018-02-08T14:19:07.872Z,6.00
2018-02-08T14:21:36.076Z,6.10
2018-02-08T14:24:03.549Z,6.10
2018-02-08T14:26:30.952Z,6.00
2018-02-08T14:28:59.160Z,5.70
2018-02-08T14:31:26.637Z,5.60
2018-02-08T14:33:54.092Z,5.50
2018-02-08T14:36:21.536Z,5.30
2018-02-08T14:38:48.960Z,5.30
2018-02-08T14:41:17.167Z,5.30
2018-02-08T14:43:44.648Z,5.30
2018-02-08T14:46:12.104Z,5.30
2018-02-08T14:48:39.540Z,5.20
2018-02-08T14:51:06.977Z,5.10
2018-02-08T14:53:35.171Z,4.90
2018-02-08T14:56:02.600Z,4.90
2018-02-08T14:58:30.801Z,4.70
2018-02-08T15:00:58.379Z,4.70
2018-02-08T15:03:25.816Z,4.60
2018-02-08T15:05:53.521Z,4.50
2018-02-08T15:08:20.950Z,4.40
2018-02-08T15:10:48.386Z,4.40
2018-02-08T15:13:15.844Z,4.30
2018-02-08T15:15:43.280Z,4.30
2018-02-08T15:18:11.477Z,4.20
2018-02-08T15:20:38.919Z,4.20
2018-02-08T15:23:07.122Z,4.00
2018-02-08T15:25:34.599Z,4.00
2018-02-08T15:28:02.048Z,4.00
2018-02-08T15:30:29.468Z,3.90
2018-02-08T15:32:57.668Z,4.00
2018-02-08T15:35:25.124Z,3.90
2018-02-08T15:37:52.551Z,4.00
2018-02-08T15:40:20.753Z,4.00
2018-02-08T15:42:48.251Z,4.10
2018-02-08T15:45:15.674Z,4.10
2018-02-08T15:47:43.144Z,4.10
2018-02-08T15:50:10.592Z,4.00
2018-02-08T15:52:38.047Z,4.10
2018-02-08T15:55:05.480Z,4.10
2018-02-08T15:57:33.782Z,4.10
2018-02-08T16:00:01.200Z,4.10
2018-02-08T16:02:29.419Z,4.00
2018-02-08T16:04:56.897Z,3.90
2018-02-08T16:07:24.327Z,3.80
2018-02-08T16:09:51.761Z,3.70
2018-02-08T16:12:19.207Z,3.60
2018-02-08T16:14:47.436Z,3.40
2018-02-08T16:17:14.874Z,3.40
2018-02-08T16:19:42.344Z,3.30
2018-02-08T16:22:09.772Z,3.20
2018-02-08T16:24:37.347Z,3.10
2018-02-08T16:27:04.812Z,3.00
2018-02-08T16:29:32.271Z,2.90
2018-02-08T16:31:59.715Z,2.80
2018-02-08T16:34:27.285Z,2.70
2018-02-08T16:36:54.728Z,2.60
2018-02-08T16:39:22.136Z,2.60
2018-02-08T16:41:49.585Z,2.50
2018-02-08T16:44:18.585Z,2.30
2018-02-08T16:46:45.960Z,2.30
2018-02-08T16:49:14.289Z,2.30
2018-02-08T16:51:41.724Z,2.30
2018-02-08T16:54:09.203Z,2.20
2018-02-08T16:56:36.792Z,2.20
2018-02-08T16:59:04.240Z,2.20
2018-02-08T17:01:31.612Z,2.10
2018-02-08T17:03:59.061Z,2.10
2018-02-08T17:06:26.528Z,2.00
2018-02-08T17:08:53.981Z,2.00
2018-02-08T17:11:21.530Z,2.00
2018-02-08T17:13:48.959Z,2.00
2018-02-08T17:16:16.394Z,1.90
2018-02-08T17:18:44.868Z,1.90
2018-02-08T17:21:12.302Z,1.90
2018-02-08T17:23:39.773Z,1.80
2018-02-08T17:26:07.982Z,1.70
2018-02-08T17:28:35.449Z,1.70
2018-02-08T17:31:02.873Z,1.70
2018-02-08T17:33:30.312Z,1.60
2018-02-08T17:35:58.530Z,1.60
2018-02-08T17:38:25.964Z,1.50
2018-02-08T17:40:53.420Z,1.50
2018-02-08T17:43:20.856Z,1.50
2018-02-08T17:45:49.179Z,1.40
2018-02-08T17:48:16.637Z,1.40
2018-02-08T17:50:44.044Z,1.40
2018-02-08T17:53:12.271Z,1.30
2018-02-08T17:55:39.752Z,1.30
2018-02-08T17:58:07.176Z,1.30
2018-02-08T18:00:34.679Z,1.30
2018-02-08T18:03:02.116Z,1.20
2018-02-08T18:05:29.548Z,1.20
2018-02-08T18:07:56.976Z,1.20
2018-02-08T18:10:24.465Z,1.20
2018-02-08T18:12:51.896Z,1.10
2018-02-08T18:15:19.346Z,1.10
2018-02-08T18:17:47.544Z,1.00
2018-02-08T18:20:15.035Z,1.00
2018-02-08T18:22:42.462Z,1.00
2018-02-08T18:25:09.944Z,1.00
2018-02-08T18:27:37.372Z,0.90
2018-02-08T18:30:04.797Z,0.90
2018-02-08T18:32:33.124Z,0.90
2018-02-08T18:35:00.550Z,0.90
2018-02-08T18:37:27.979Z,0.90
2018-02-08T18:39:56.202Z,0.80
2018-02-08T18:42:23.668Z,0.80
2018-02-08T18:44:51.189Z,0.90
2018-02-08T18:47:18.669Z,0.80
2018-02-08T18:49:46.084Z,0.80
2018-02-08T18:52:14.308Z,0.80
2018-02-08T18:54:41.757Z,0.80
2018-02-08T18:57:09.240Z,0.80
2018-02-08T18:59:36.800Z,0.80
2018-02-08T19:02:04.240Z,0.70
2018-02-08T19:04:31.699Z,0.70
2018-02-08T19:06:59.256Z,0.70
2018-02-08T19:09:26.732Z,0.60
2018-02-08T19:11:54.168Z,0.70
2018-02-08T19:14:21.633Z,0.60
2018-02-08T19:16:49.085Z,0.60
2018-02-08T19:19:16.531Z,0.60
2018-02-08T19:21:43.957Z,0.60
2018-02-08T19:24:12.277Z,0.60
2018-02-08T19:26:39.768Z,0.60
2018-02-08T19:29:07.200Z,0.60
2018-02-08T19:31:34.646Z,0.60
2018-02-08T19:34:02.095Z,0.60
2018-02-08T19:36:29.507Z,0.60
2018-02-08T19:38:57.720Z,0.60
2018-02-08T19:41:25.139Z,0.60
2018-02-08T19:43:53.384Z,0.50
2018-02-08T19:46:20.966Z,0.50
2018-02-08T19:48:48.584Z,0.50
2018-02-08T19:51:15.993Z,0.50
2018-02-08T19:53:44.208Z,0.50
2018-02-08T19:56:11.636Z,0.40
2018-02-08T19:58:39.844Z,0.40
2018-02-08T20:01:07.308Z,0.40
2018-02-08T20:03:34.857Z,0.40
2018-02-08T20:06:02.264Z,0.40
2018-02-08T20:08:29.808Z,0.40
2018-02-08T20:10:57.184Z,0.30
2018-02-08T20:13:25.409Z,0.30
2018-02-08T20:15:52.864Z,0.30
2018-02-08T20:18:20.329Z,0.20
2018-02-08T20:20:47.790Z,0.20
2018-02-08T20:23:15.235Z,0.20
2018-02-08T20:25:42.666Z,0.20
2018-02-08T20:28:10.091Z,0.20
2018-02-08T20:30:37.536Z,0.10
2018-02-08T20:33:04.968Z,0.10
2018-02-08T20:35:32.400Z,0.10
2018-02-08T20:37:59.884Z,0.10
2018-02-08T20:40:29.906Z,0.00
2018-02-08T20:43:02.952Z,0.00
2018-02-08T20:45:30.397Z,0.00
2018-02-08T20:47:58.619Z,0.00
2018-02-08T20:50:26.065Z,0.00
2018-02-08T20:52:53.504Z,0.00
2018-02-08T20:55:20.952Z,0.00
2018-02-08T20:57:49.169Z,0.00
2018-02-08T21:00:16.620Z,-0.10
2018-02-08T21:02:44.068Z,0.00
2018-02-08T21:05:11.536Z,-0.10
2018-02-08T21:07:38.972Z,-0.10
2018-02-08T21:10:06.449Z,-0.10
2018-02-08T21:12:34.010Z,-0.10
2018-02-08T21:15:01.441Z,-0.10
2018-02-08T21:17:28.877Z,-0.10
2018-02-08T21:19:57.190Z,-0.10
2018-02-08T21:22:24.664Z,-0.20
2018-02-08T21:24:52.128Z,-0.10
2018-02-08T21:27:19.588Z,-0.20
2018-02-08T21:29:47.041Z,-0.20
2018-02-08T21:32:14.476Z,-0.20
2018-02-08T21:34:41.951Z,-0.20
2018-02-08T21:37:09.396Z,-0.20
2018-02-08T21:39:36.884Z,-0.20
2018-02-08T21:42:04.335Z,-0.20
2018-02-08T21:44:31.877Z,-0.20
2018-02-08T21:46:59.346Z,-0.20
2018-02-08T21:49:26.896Z,-0.20
2018-02-08T21:51:54.367Z,-0.20
2018-02-08T21:54:21.806Z,-0.20
2018-02-08T21:56:49.256Z,-0.30
2018-02-08T21:59:16.688Z,-0.30
2018-02-08T22:01:44.168Z,-0.30
2018-02-08T22:04:11.620Z,-0.30
2018-02-08T22:06:39.052Z,-0.30
2018-02-08T22:09:06.536Z,-0.30
2018-02-08T22:11:34.036Z,-0.30
2018-02-08T22:14:01.569Z,-0.30
2018-02-08T22:16:29.116Z,-0.30
2018-02-08T22:18:56.610Z,-0.30
2018-02-08T22:21:24.480Z,-0.30
2018-02-08T22:23:57.883Z,-0.30
2018-02-08T22:26:26.080Z,-0.30
2018-02-08T22:28:53.591Z,-0.40
2018-02-08T22:31:21.178Z,-0.30
2018-02-08T22:33:49.501Z,-0.40
2018-02-08T22:36:16.915Z,-0.40
2018-02-08T22:38:45.131Z,-0.40
2018-02-08T22:41:12.588Z,-0.40
2018-02-08T22:43:40.085Z,-0.40
2018-02-08T22:46:07.531Z,-0.40
2018-02-08T22:48:34.986Z,-0.40
2018-02-08T22:51:02.536Z,-0.30
2018-02-08T22:53:29.991Z,-0.30
2018-02-08T22:55:57.432Z,-0.30
2018-02-08T22:58:24.873Z,-0.20
2018-02-08T23:00:52.345Z,-0.20
2018-02-08T23:03:19.855Z,-0.20
2018-02-08T23:05:47.290Z,-0.10
2018-02-08T23:08:14.739Z,-0.10
2018-02-08T23:10:42.190Z,-0.10
2018-02-08T23:13:09.616Z,-0.10
2018-02-08T23:15:37.089Z,-0.10
2018-02-08T23:18:04.556Z,-0.10
2018-02-08T23:20:32.015Z,-0.10
2018-02-08T23:22:59.463Z,-0.10
2018-02-08T23:25:26.926Z,-0.10
2018-02-08T23:27:54.358Z,-0.10
2018-02-08T23:30:21.812Z,-0.10
2018-02-08T23:32:49.256Z,-0.10
2018-02-08T23:35:17.496Z,-0.10
2018-02-08T23:37:44.946Z,-0.10
2018-02-08T23:40:12.487Z,-0.10
2018-02-08T23:42:39.920Z,-0.10
2018-02-08T23:45:07.373Z,-0.10
2018-02-08T23:47:34.808Z,-0.10
2018-02-08T23:50:03.026Z,-0.10
2018-02-08T23:52:30.505Z,-0.10
2018-02-08T23:54:57.939Z,-0.10
2018-02-08T23:57:25.410Z,-0.10
2018-02-08T23:59:52.963Z,-0.10
